Terminal Aerodrome Forecast
Issued by NWS Jacksonville, FL

Home | Current Version | Previous Version | Text Only | Print | Product List | Glossary On
Versions: 1 2 3 4 5 6 7 8 9 10 11 12 13 14 15 16 17 18 19 20 21 22 23 24 25 26 27 28 29 30 31 32 33 34 35 36 37 38 39 40 41 42 43 44 45 46 47 48 49 50
000
FTUS42 KJAX 221138
TAFJAX
TAF
KJAX 221138Z 2212/2312 03006KT P6SM VCSH FEW015 SCT035 BKN080
      TEMPO 2212/2215 4SM SHRA BR BKN020
     FM221500 07010KT P6SM VCTS SCT025CB BKN050
     FM222100 07009KT P6SM VCSH SCT025 BKN150
     FM230400 07004KT P6SM FEW020 BKN200=

USA.gov is the U.S. government's official web portal to all federal, state and local government web resources and services.